Time;durP1;ratioP1;P1;durP2;ratioP2;P2;SDS_P1;SDS_P2;PMS_P1;PMS_P2;Temp;Humidity;BMP_temperature;BMP_pressure;BME280_temperature;BME280_humidity;BME280_pressure;Samples;Min_cycle;Max_cycle;Signal;HPM_P1;HPM_P2
2022/01/19 00:01:18;;;;;;;3.30;1.33;;;;;;;;;;4413052;32;20076;-52
2022/01/19 00:03:47;;;;;;;4.37;1.10;;;;;;;;;;4418729;32;20087;-50
2022/01/19 00:06:15;;;;;;;2.75;1.15;;;;;;;;;;4410743;32;20467;-51
2022/01/19 00:08:44;;;;;;;3.22;1.10;;;;;;;;;;4419413;32;20058;-51
2022/01/19 00:11:12;;;;;;;4.68;1.37;;;;;;;;;;4413197;32;20031;-51
2022/01/19 00:13:41;;;;;;;4.85;1.25;;;;;;;;;;4409752;32;20125;-50
2022/01/19 00:16:10;;;;;;;3.95;1.27;;;;;;;;;;4410719;32;20068;-54
2022/01/19 00:18:39;;;;;;;5.37;1.30;;;;;;;;;;4415209;32;20050;-51
2022/01/19 00:21:07;;;;;;;4.70;1.17;;;;;;;;;;4410592;32;20031;-52
2022/01/19 00:23:35;;;;;;;3.25;1.10;;;;;;;;;;4416272;32;20094;-52
2022/01/19 00:26:04;;;;;;;3.12;1.20;;;;;;;;;;4413240;32;20034;-50
2022/01/19 00:28:32;;;;;;;4.10;1.30;;;;;;;;;;4409279;32;20052;-50
2022/01/19 00:31:01;;;;;;;2.58;1.40;;;;;;;;;;4417333;32;20036;-51
2022/01/19 00:33:29;;;;;;;3.37;1.10;;;;;;;;;;4404504;32;20046;-50
2022/01/19 00:35:58;;;;;;;2.75;1.37;;;;;;;;;;4418380;32;20108;-53
2022/01/19 00:38:26;;;;;;;2.17;1.00;;;;;;;;;;4412462;32;20476;-50
2022/01/19 00:40:57;;;;;;;4.03;1.40;;;;;;;;;;4413257;32;20048;-52
2022/01/19 00:43:25;;;;;;;3.92;1.12;;;;;;;;;;4406872;32;20068;-51
2022/01/19 00:45:54;;;;;;;4.25;1.27;;;;;;;;;;4403654;32;20048;-51
2022/01/19 00:48:27;;;;;;;3.87;1.17;;;;;;;;;;4419066;32;20050;-51
2022/01/19 00:50:57;;;;;;;3.28;1.02;;;;;;;;;;4404863;32;20078;-50
2022/01/19 00:53:25;;;;;;;3.10;1.15;;;;;;;;;;4410060;32;20109;-50
2022/01/19 00:55:56;;;;;;;2.80;1.20;;;;;;;;;;4413557;32;20087;-52
2022/01/19 00:58:25;;;;;;;6.60;1.50;;;;;;;;;;4411177;32;20046;-51
2022/01/19 01:00:53;;;;;;;3.80;1.48;;;;;;;;;;4412236;32;20106;-51
2022/01/19 01:03:22;;;;;;;2.92;1.00;;;;;;;;;;4405611;32;20034;-50
2022/01/19 01:05:50;;;;;;;5.10;1.08;;;;;;;;;;4413147;32;20091;-51
2022/01/19 01:08:18;;;;;;;1.90;1.12;;;;;;;;;;4416552;32;20047;-52
2022/01/19 01:10:48;;;;;;;2.37;0.88;;;;;;;;;;4406687;32;20019;-50
2022/01/19 01:13:22;;;;;;;3.97;1.20;;;;;;;;;;4412110;32;20078;-51
2022/01/19 01:18:30;;;;;;;2.75;0.95;;;;;;;;;;4412806;32;20408;-51
2022/01/19 01:21:00;;;;;;;4.45;1.17;;;;;;;;;;4416375;32;20446;-52
2022/01/19 01:23:31;;;;;;;3.70;1.00;;;;;;;;;;4412253;32;20049;-51
2022/01/19 01:26:00;;;;;;;4.53;1.10;;;;;;;;;;4409514;32;20402;-52
2022/01/19 01:28:28;;;;;;;3.60;1.23;;;;;;;;;;4405925;32;20047;-53
2022/01/19 01:30:57;;;;;;;4.55;1.20;;;;;;;;;;4403649;32;20074;-51
2022/01/19 01:33:26;;;;;;;3.75;1.12;;;;;;;;;;4408580;32;20080;-51
2022/01/19 01:35:57;;;;;;;2.92;0.90;;;;;;;;;;4408069;32;20086;-53
2022/01/19 01:38:26;;;;;;;5.28;0.88;;;;;;;;;;4417219;32;20057;-51
2022/01/19 01:41:13;;;;;;;3.35;1.00;;;;;;;;;;4407805;32;20396;-53
2022/01/19 01:43:43;;;;;;;4.57;1.10;;;;;;;;;;4409773;32;20410;-51
2022/01/19 01:46:27;;;;;;;4.22;0.90;;;;;;;;;;4408309;32;20069;-54
2022/01/19 01:48:57;;;;;;;3.37;1.10;;;;;;;;;;4409374;32;20108;-50
2022/01/19 01:54:13;;;;;;;3.78;1.00;;;;;;;;;;4414845;32;20418;-52
2022/01/19 01:56:41;;;;;;;3.62;1.20;;;;;;;;;;4414348;32;20035;-51
2022/01/19 01:59:10;;;;;;;3.58;1.05;;;;;;;;;;4410512;32;20089;-52
2022/01/19 02:01:40;;;;;;;3.30;1.12;;;;;;;;;;4407528;32;20092;-51
2022/01/19 02:04:09;;;;;;;4.05;1.20;;;;;;;;;;4409293;32;20181;-50
2022/01/19 02:07:03;;;;;;;2.70;1.00;;;;;;;;;;4407568;32;20093;-51
2022/01/19 02:09:32;;;;;;;3.30;1.10;;;;;;;;;;4410466;32;20066;-50
2022/01/19 02:23:25;;;;;;;3.33;1.02;;;;;;;;;;4421209;32;20067;-51
2022/01/19 02:25:57;;;;;;;4.68;0.90;;;;;;;;;;4413117;32;20245;-51
2022/01/19 02:42:55;;;;;;;3.75;1.17;;;;;;;;;;4363891;32;20051;-52
2022/01/19 02:50:43;;;;;;;4.20;1.00;;;;;;;;;;4408766;32;20054;-51
2022/01/19 02:53:11;;;;;;;2.30;0.85;;;;;;;;;;4419304;32;20118;-50
2022/01/19 02:55:39;;;;;;;2.62;0.90;;;;;;;;;;4408855;32;20107;-50
2022/01/19 02:58:08;;;;;;;3.67;1.00;;;;;;;;;;4411094;32;20034;-50
2022/01/19 03:09:00;;;;;;;1.65;0.90;;;;;;;;;;4412354;32;20058;-52
2022/01/19 03:11:29;;;;;;;4.85;1.20;;;;;;;;;;4423903;32;20039;-50
2022/01/19 03:13:57;;;;;;;2.87;0.80;;;;;;;;;;4411397;32;20120;-52
2022/01/19 03:16:26;;;;;;;2.22;0.90;;;;;;;;;;4415867;32;20040;-51
2022/01/19 03:18:54;;;;;;;1.90;0.90;;;;;;;;;;4414690;32;20498;-51
2022/01/19 03:21:23;;;;;;;2.03;0.70;;;;;;;;;;4408784;32;20791;-50
2022/01/19 03:23:51;;;;;;;2.05;0.90;;;;;;;;;;4416884;32;20053;-51
2022/01/19 03:26:19;;;;;;;2.15;0.80;;;;;;;;;;4413343;32;20046;-53
2022/01/19 03:28:49;;;;;;;2.22;0.98;;;;;;;;;;4418675;32;20034;-50
2022/01/19 03:31:17;;;;;;;2.50;1.00;;;;;;;;;;4413677;32;20127;-51
2022/01/19 03:33:46;;;;;;;3.70;1.10;;;;;;;;;;4409284;32;20046;-54
2022/01/19 03:36:14;;;;;;;2.92;0.93;;;;;;;;;;4409849;32;20038;-53
2022/01/19 03:38:43;;;;;;;2.05;0.73;;;;;;;;;;4417981;32;20383;-49
2022/01/19 03:41:12;;;;;;;2.17;0.77;;;;;;;;;;4412145;32;20034;-51
2022/01/19 03:43:42;;;;;;;2.03;0.77;;;;;;;;;;4407827;32;20369;-53
2022/01/19 03:46:16;;;;;;;1.65;0.70;;;;;;;;;;4419845;32;20082;-51
2022/01/19 03:48:53;;;;;;;4.25;1.27;;;;;;;;;;4410479;32;20046;-50
2022/01/19 03:51:22;;;;;;;4.43;1.17;;;;;;;;;;4417363;32;20042;-50
2022/01/19 03:53:51;;;;;;;3.30;1.00;;;;;;;;;;4411683;32;20042;-52
2022/01/19 03:56:20;;;;;;;2.72;0.90;;;;;;;;;;4413837;32;20467;-51
2022/01/19 03:58:48;;;;;;;4.25;1.08;;;;;;;;;;4413215;32;20049;-52
2022/01/19 04:01:17;;;;;;;3.83;1.12;;;;;;;;;;4410331;32;20420;-49
2022/01/19 04:06:25;;;;;;;2.05;0.93;;;;;;;;;;4414108;32;20118;-50
2022/01/19 04:08:54;;;;;;;3.97;1.05;;;;;;;;;;4418384;32;20455;-51
2022/01/19 04:11:23;;;;;;;2.83;0.73;;;;;;;;;;4418232;32;20038;-50
2022/01/19 04:16:33;;;;;;;2.72;0.73;;;;;;;;;;4415835;32;20042;-53
2022/01/19 04:19:16;;;;;;;3.20;0.73;;;;;;;;;;4413276;32;20117;-50
2022/01/19 04:21:45;;;;;;;2.60;0.77;;;;;;;;;;4412935;32;20466;-50
2022/01/19 04:24:14;;;;;;;4.28;1.15;;;;;;;;;;4416535;32;20388;-53
2022/01/19 04:26:43;;;;;;;2.67;0.93;;;;;;;;;;4411700;32;20060;-53
2022/01/19 04:29:14;;;;;;;2.08;0.90;;;;;;;;;;4413388;32;20038;-51
2022/01/19 04:31:42;;;;;;;3.37;0.90;;;;;;;;;;4410773;32;20473;-53
2022/01/19 04:34:14;;;;;;;3.37;1.00;;;;;;;;;;4410540;32;20429;-50
2022/01/19 04:44:58;;;;;;;2.65;0.82;;;;;;;;;;4414192;32;20509;-50
2022/01/19 05:04:21;;;;;;;1.73;1.08;;;;;;;;;;4417660;32;20042;-52
2022/01/19 05:07:02;;;;;;;2.37;0.93;;;;;;;;;;4406475;32;20038;-51
2022/01/19 05:14:50;;;;;;;4.87;1.00;;;;;;;;;;4411024;32;20050;-50
2022/01/19 05:17:19;;;;;;;5.78;0.98;;;;;;;;;;4410663;32;20144;-50
2022/01/19 05:19:47;;;;;;;3.70;1.00;;;;;;;;;;4401782;32;20057;-53
2022/01/19 05:22:15;;;;;;;4.43;1.00;;;;;;;;;;4405893;32;20096;-54
2022/01/19 05:24:46;;;;;;;5.32;1.17;;;;;;;;;;4410751;32;20078;-49
2022/01/19 05:27:17;;;;;;;5.75;1.00;;;;;;;;;;4414289;32;20034;-50
2022/01/19 05:29:46;;;;;;;2.70;0.88;;;;;;;;;;4414029;32;20050;-52
2022/01/19 05:32:14;;;;;;;2.78;0.98;;;;;;;;;;4410649;32;20027;-50
2022/01/19 05:34:43;;;;;;;3.00;1.02;;;;;;;;;;4402390;32;20043;-51
2022/01/19 05:37:12;;;;;;;4.93;0.98;;;;;;;;;;4406434;32;20502;-50
2022/01/19 05:39:40;;;;;;;2.67;1.08;;;;;;;;;;4409995;32;20049;-50
2022/01/19 05:42:15;;;;;;;2.45;1.17;;;;;;;;;;4413095;32;20035;-51
2022/01/19 05:44:43;;;;;;;;;;;;;;;;;;4417163;32;20034;-51
2022/01/19 05:47:16;;;;;;;4.37;1.10;;;;;;;;;;4426124;32;20250;-51
2022/01/19 05:49:45;;;;;;;5.15;1.08;;;;;;;;;;4417951;32;20037;-51
2022/01/19 05:52:13;;;;;;;4.68;1.20;;;;;;;;;;4422643;32;20047;-50
2022/01/19 05:54:42;;;;;;;5.15;1.10;;;;;;;;;;4417858;32;20066;-50
2022/01/19 05:57:10;;;;;;;2.37;1.10;;;;;;;;;;4411160;32;20031;-52
2022/01/19 05:59:39;;;;;;;2.00;0.90;;;;;;;;;;4421858;32;20435;-50
2022/01/19 06:02:08;;;;;;;3.35;0.90;;;;;;;;;;4410230;32;20135;-50
2022/01/19 06:04:37;;;;;;;2.80;0.90;;;;;;;;;;4411702;32;20077;-51
2022/01/19 06:07:06;;;;;;;3.55;0.73;;;;;;;;;;4411931;32;20102;-52
2022/01/19 06:09:36;;;;;;;7.57;0.90;;;;;;;;;;4408778;32;20025;-50
2022/01/19 06:12:08;;;;;;;3.55;0.90;;;;;;;;;;4411380;32;21121;-51
2022/01/19 06:14:37;;;;;;;4.30;1.12;;;;;;;;;;4415250;32;20418;-50
2022/01/19 06:17:07;;;;;;;1.85;0.88;;;;;;;;;;4408155;32;20053;-52
2022/01/19 06:19:35;;;;;;;9.05;1.17;;;;;;;;;;4413403;32;20031;-53
2022/01/19 06:22:04;;;;;;;4.78;1.10;;;;;;;;;;4416376;32;20076;-50
2022/01/19 06:24:32;;;;;;;4.50;1.20;;;;;;;;;;4417274;32;20088;-51
2022/01/19 06:27:01;;;;;;;4.22;1.02;;;;;;;;;;4409292;32;20058;-51
2022/01/19 06:29:29;;;;;;;3.28;1.00;;;;;;;;;;4408575;32;20100;-53
2022/01/19 06:32:00;;;;;;;5.55;1.15;;;;;;;;;;4410070;32;20066;-50
2022/01/19 06:34:28;;;;;;;4.05;1.55;;;;;;;;;;4412257;32;20019;-50
2022/01/19 06:36:57;;;;;;;3.95;1.00;;;;;;;;;;4411250;32;20076;-50
2022/01/19 06:39:26;;;;;;;3.10;0.98;;;;;;;;;;4411590;32;20065;-53
2022/01/19 06:41:57;;;;;;;5.07;0.98;;;;;;;;;;4416499;32;20056;-51
2022/01/19 06:44:26;;;;;;;3.60;1.10;;;;;;;;;;4413739;32;20590;-49
2022/01/19 06:46:54;;;;;;;3.33;1.00;;;;;;;;;;4416470;32;20397;-53
2022/01/19 06:49:23;;;;;;;7.72;1.50;;;;;;;;;;4414681;32;20105;-51
2022/01/19 06:51:52;;;;;;;3.42;1.15;;;;;;;;;;4414612;32;20038;-50
2022/01/19 06:54:20;;;;;;;3.78;1.17;;;;;;;;;;4414411;32;20089;-51
2022/01/19 06:56:48;;;;;;;5.62;0.98;;;;;;;;;;4410776;32;20100;-54
2022/01/19 06:59:17;;;;;;;4.18;1.10;;;;;;;;;;4415024;32;20026;-51
2022/01/19 07:01:46;;;;;;;3.90;1.40;;;;;;;;;;4419281;32;20023;-53
2022/01/19 07:04:16;;;;;;;4.72;1.20;;;;;;;;;;4411685;32;20478;-52
2022/01/19 07:06:45;;;;;;;8.98;1.33;;;;;;;;;;4411530;32;20066;-50
2022/01/19 07:09:15;;;;;;;3.60;1.20;;;;;;;;;;4408958;32;20045;-50
2022/01/19 07:11:43;;;;;;;3.45;1.00;;;;;;;;;;4415865;32;20038;-50
2022/01/19 07:14:13;;;;;;;8.50;1.17;;;;;;;;;;4417311;32;20038;-50
2022/01/19 07:16:42;;;;;;;6.43;1.25;;;;;;;;;;4409092;32;20085;-50
2022/01/19 07:19:10;;;;;;;8.45;1.50;;;;;;;;;;4409883;32;20181;-49
2022/01/19 07:21:40;;;;;;;8.23;1.45;;;;;;;;;;4417852;32;20082;-50
2022/01/19 07:24:12;;;;;;;5.85;1.12;;;;;;;;;;4410250;32;20487;-52
2022/01/19 07:26:40;;;;;;;4.80;1.12;;;;;;;;;;4416272;32;20095;-51
2022/01/19 07:29:09;;;;;;;4.82;1.20;;;;;;;;;;4403793;32;20092;-51
2022/01/19 07:31:38;;;;;;;4.43;1.27;;;;;;;;;;4412260;32;20038;-50
2022/01/19 07:34:07;;;;;;;4.03;1.15;;;;;;;;;;4408148;32;20084;-51
2022/01/19 07:36:36;;;;;;;5.43;1.33;;;;;;;;;;4423394;32;20448;-50
2022/01/19 07:39:05;;;;;;;5.10;1.12;;;;;;;;;;4416310;32;20065;-52
2022/01/19 07:41:33;;;;;;;5.47;1.10;;;;;;;;;;4421279;32;20094;-53
2022/01/19 07:44:17;;;;;;;5.18;1.15;;;;;;;;;;4415862;32;20066;-50
2022/01/19 07:46:48;;;;;;;15.30;1.50;;;;;;;;;;4406942;32;20067;-52
2022/01/19 07:49:17;;;;;;;6.35;1.12;;;;;;;;;;4411545;32;20092;-53
2022/01/19 07:51:46;;;;;;;9.07;1.52;;;;;;;;;;4415431;32;20042;-53
2022/01/19 07:54:16;;;;;;;5.97;1.25;;;;;;;;;;4418668;32;20188;-53
2022/01/19 07:56:48;;;;;;;4.05;1.05;;;;;;;;;;4409388;32;20057;-50
2022/01/19 07:59:17;;;;;;;7.53;1.20;;;;;;;;;;4412283;32;20089;-54
2022/01/19 08:01:46;;;;;;;4.60;1.15;;;;;;;;;;4410114;32;20039;-51
2022/01/19 08:04:16;;;;;;;6.75;1.40;;;;;;;;;;4409580;32;20149;-53
2022/01/19 08:06:45;;;;;;;5.30;1.00;;;;;;;;;;4407680;32;20035;-50
2022/01/19 08:09:13;;;;;;;4.72;1.35;;;;;;;;;;4416489;32;20052;-52
2022/01/19 08:11:42;;;;;;;8.20;1.48;;;;;;;;;;4406495;32;20476;-52
2022/01/19 08:14:10;;;;;;;4.62;1.12;;;;;;;;;;4412160;32;20104;-53
2022/01/19 08:16:39;;;;;;;5.53;1.25;;;;;;;;;;4413460;32;20396;-51
2022/01/19 08:19:08;;;;;;;11.50;1.42;;;;;;;;;;4407257;32;20124;-50
2022/01/19 08:21:38;;;;;;;6.65;1.70;;;;;;;;;;4410604;32;20035;-49
2022/01/19 08:24:08;;;;;;;3.67;1.00;;;;;;;;;;4406628;32;20051;-50
2022/01/19 08:26:37;;;;;;;6.47;1.37;;;;;;;;;;4410247;32;20072;-54
2022/01/19 08:29:06;;;;;;;5.03;1.17;;;;;;;;;;4413190;32;20046;-53
2022/01/19 08:31:34;;;;;;;4.85;1.17;;;;;;;;;;4407708;32;20054;-52
2022/01/19 08:34:11;;;;;;;5.90;1.00;;;;;;;;;;4412167;32;20464;-53
2022/01/19 08:36:41;;;;;;;5.22;1.20;;;;;;;;;;4408125;32;20145;-53
2022/01/19 08:39:10;;;;;;;5.30;1.35;;;;;;;;;;4408420;32;20096;-52
2022/01/19 08:41:39;;;;;;;7.12;1.58;;;;;;;;;;4413245;32;20054;-53
2022/01/19 08:44:07;;;;;;;5.07;1.10;;;;;;;;;;4418314;32;20043;-52
2022/01/19 08:46:39;;;;;;;4.47;1.25;;;;;;;;;;4412124;32;20065;-51
2022/01/19 08:49:09;;;;;;;4.12;0.90;;;;;;;;;;4414547;32;20058;-50
2022/01/19 08:51:39;;;;;;;7.10;1.48;;;;;;;;;;4409557;32;20082;-51
2022/01/19 08:54:11;;;;;;;5.72;1.42;;;;;;;;;;4408370;32;20502;-53
2022/01/19 08:56:42;;;;;;;5.43;1.08;;;;;;;;;;4402297;32;20043;-50
2022/01/19 08:59:10;;;;;;;8.55;1.40;;;;;;;;;;4406634;32;20026;-50
2022/01/19 09:01:39;;;;;;;6.20;1.30;;;;;;;;;;4414615;32;20422;-53
2022/01/19 09:04:07;;;;;;;7.68;1.20;;;;;;;;;;4414971;32;20039;-53
2022/01/19 09:06:36;;;;;;;6.65;1.30;;;;;;;;;;4411838;32;20061;-53
2022/01/19 09:09:04;;;;;;;6.50;1.25;;;;;;;;;;4412288;32;20429;-52
2022/01/19 09:11:33;;;;;;;6.95;1.52;;;;;;;;;;4405904;32;22102;-51
2022/01/19 09:14:02;;;;;;;5.60;1.30;;;;;;;;;;4414075;32;20062;-51
2022/01/19 09:16:30;;;;;;;11.68;2.03;;;;;;;;;;4411241;32;20047;-50
2022/01/19 09:19:02;;;;;;;12.70;1.77;;;;;;;;;;4408043;32;20047;-51
2022/01/19 09:21:30;;;;;;;12.95;1.55;;;;;;;;;;4412366;32;20376;-49
2022/01/19 09:23:58;;;;;;;9.48;1.87;;;;;;;;;;4411566;32;20092;-51
2022/01/19 09:26:29;;;;;;;13.43;1.58;;;;;;;;;;4414293;32;20038;-52
2022/01/19 09:28:57;;;;;;;11.98;1.80;;;;;;;;;;4411646;32;20043;-49
2022/01/19 09:31:34;;;;;;;9.70;1.90;;;;;;;;;;4410061;32;20067;-51
2022/01/19 09:34:14;;;;;;;11.93;1.90;;;;;;;;;;4405326;32;20910;-50
2022/01/19 09:36:46;;;;;;;8.88;1.77;;;;;;;;;;4408428;32;20103;-49
2022/01/19 09:39:26;;;;;;;10.02;1.42;;;;;;;;;;4410516;32;20058;-50
2022/01/19 09:41:55;;;;;;;10.70;1.42;;;;;;;;;;4406196;32;20046;-50
2022/01/19 09:44:24;;;;;;;12.30;1.85;;;;;;;;;;4413527;32;20086;-50
2022/01/19 09:46:53;;;;;;;7.85;1.60;;;;;;;;;;4407382;32;20047;-50
2022/01/19 09:49:22;;;;;;;9.63;1.40;;;;;;;;;;4412930;32;20119;-49
2022/01/19 09:51:51;;;;;;;11.12;1.70;;;;;;;;;;4412241;32;20113;-49
2022/01/19 09:54:23;;;;;;;7.55;1.40;;;;;;;;;;4405875;32;20082;-51
2022/01/19 09:56:52;;;;;;;7.43;1.60;;;;;;;;;;4407564;32;20042;-50
2022/01/19 09:59:20;;;;;;;9.18;1.40;;;;;;;;;;4410689;32;20103;-50
2022/01/19 10:01:56;;;;;;;6.30;1.55;;;;;;;;;;4405749;32;20058;-50
2022/01/19 10:04:29;;;;;;;5.95;1.42;;;;;;;;;;4406125;32;20051;-49
2022/01/19 10:07:18;;;;;;;8.35;1.70;;;;;;;;;;4413304;32;20055;-53
2022/01/19 10:09:57;;;;;;;10.75;1.55;;;;;;;;;;4400639;32;20030;-50
2022/01/19 10:18:09;;;;;;;11.25;1.73;;;;;;;;;;4403596;32;20056;-49
2022/01/19 10:20:38;;;;;;;7.12;1.25;;;;;;;;;;4408378;32;20404;-50
2022/01/19 10:23:26;;;;;;;7.12;1.45;;;;;;;;;;4410099;32;20423;-50
2022/01/19 10:25:55;;;;;;;10.98;1.50;;;;;;;;;;4411896;32;20122;-53
2022/01/19 10:28:24;;;;;;;7.25;1.33;;;;;;;;;;4409839;32;20035;-49
2022/01/19 10:30:52;;;;;;;7.68;1.33;;;;;;;;;;4413229;32;20401;-51
2022/01/19 10:33:21;;;;;;;8.68;1.58;;;;;;;;;;4416006;32;20035;-51
2022/01/19 10:35:50;;;;;;;7.43;1.50;;;;;;;;;;4408740;32;20432;-50
2022/01/19 10:38:19;;;;;;;7.05;1.27;;;;;;;;;;4406804;32;20042;-52
2022/01/19 10:41:02;;;;;;;7.70;1.62;;;;;;;;;;4418014;32;20042;-51
2022/01/19 10:43:37;;;;;;;8.02;1.60;;;;;;;;;;4411720;32;20054;-50
2022/01/19 10:46:25;;;;;;;9.07;1.50;;;;;;;;;;4413678;32;20038;-51
2022/01/19 10:49:01;;;;;;;6.60;1.50;;;;;;;;;;4415393;32;20030;-50
2022/01/19 10:51:31;;;;;;;6.45;1.40;;;;;;;;;;4418944;32;20055;-49
2022/01/19 10:54:14;;;;;;;8.30;1.45;;;;;;;;;;4414384;32;20084;-50
2022/01/19 10:56:44;;;;;;;11.10;1.40;;;;;;;;;;4414910;32;20073;-52
2022/01/19 10:59:14;;;;;;;5.37;1.35;;;;;;;;;;4415774;32;20103;-50
2022/01/19 11:01:51;;;;;;;7.35;1.62;;;;;;;;;;4409170;32;20082;-52
2022/01/19 11:04:26;;;;;;;6.07;1.40;;;;;;;;;;4410813;32;20132;-53
2022/01/19 11:06:57;;;;;;;8.07;1.33;;;;;;;;;;4409425;32;20448;-48
2022/01/19 11:09:29;;;;;;;9.50;1.40;;;;;;;;;;4406228;32;20365;-51
2022/01/19 11:11:59;;;;;;;6.70;1.25;;;;;;;;;;4408614;32;20408;-49
2022/01/19 11:14:27;;;;;;;5.72;1.58;;;;;;;;;;4410242;32;20346;-50
2022/01/19 11:16:56;;;;;;;7.37;1.20;;;;;;;;;;4413651;32;20045;-49
2022/01/19 11:19:25;;;;;;;5.95;1.33;;;;;;;;;;4421992;32;20030;-50
2022/01/19 11:22:04;;;;;;;8.65;1.52;;;;;;;;;;4408914;32;20053;-49
2022/01/19 11:24:34;;;;;;;4.57;1.52;;;;;;;;;;4412084;32;20038;-49
2022/01/19 11:27:03;;;;;;;4.95;1.20;;;;;;;;;;4410839;32;20093;-52
2022/01/19 11:29:33;;;;;;;8.10;1.55;;;;;;;;;;4411351;32;20042;-53
2022/01/19 11:32:13;;;;;;;8.27;1.52;;;;;;;;;;4413191;32;20083;-50
2022/01/19 11:34:50;;;;;;;7.68;1.60;;;;;;;;;;4410866;32;20095;-49
2022/01/19 11:37:38;;;;;;;5.20;1.30;;;;;;;;;;4406478;32;20446;-50
2022/01/19 11:40:15;;;;;;;7.65;1.48;;;;;;;;;;4416147;32;20046;-50
2022/01/19 11:42:43;;;;;;;3.92;1.20;;;;;;;;;;4411569;32;20135;-50
2022/01/19 11:45:32;;;;;;;6.68;1.80;;;;;;;;;;4411414;32;20092;-52
2022/01/19 11:48:17;;;;;;;8.32;1.40;;;;;;;;;;4394818;32;20050;-50
2022/01/19 11:50:47;;;;;;;8.15;1.50;;;;;;;;;;4394872;32;20084;-54
2022/01/19 11:53:15;;;;;;;4.18;1.37;;;;;;;;;;4410929;32;20034;-51
2022/01/19 11:56:02;;;;;;;11.07;1.60;;;;;;;;;;4410657;32;20048;-51
2022/01/19 11:58:31;;;;;;;11.93;1.70;;;;;;;;;;4401102;32;20043;-50
2022/01/19 12:00:59;;;;;;;5.62;1.48;;;;;;;;;;4413271;32;20084;-52
2022/01/19 12:03:39;;;;;;;6.25;1.30;;;;;;;;;;4409190;32;20414;-50
2022/01/19 12:06:31;;;;;;;12.90;1.62;;;;;;;;;;4414994;32;20071;-50
2022/01/19 12:09:01;;;;;;;9.43;1.50;;;;;;;;;;4414629;32;20404;-51
2022/01/19 12:11:32;;;;;;;6.50;1.58;;;;;;;;;;4404876;32;20070;-50
2022/01/19 12:19:12;;;;;;;11.20;1.77;;;;;;;;;;4411704;32;20039;-53
2022/01/19 12:21:42;;;;;;;12.65;1.60;;;;;;;;;;4416835;32;20374;-51
2022/01/19 12:24:33;;;;;;;9.07;1.85;;;;;;;;;;4415639;32;20034;-49
2022/01/19 12:27:02;;;;;;;8.48;1.60;;;;;;;;;;4413473;32;20026;-52
2022/01/19 12:29:36;;;;;;;7.22;1.58;;;;;;;;;;4409222;32;20059;-50
2022/01/19 12:32:17;;;;;;;8.32;1.50;;;;;;;;;;4414416;32;20054;-53
2022/01/19 12:34:52;;;;;;;9.18;1.45;;;;;;;;;;4415004;32;20133;-50
2022/01/19 12:37:33;;;;;;;7.15;1.55;;;;;;;;;;4412763;32;20046;-52
2022/01/19 12:40:04;;;;;;;10.43;1.87;;;;;;;;;;4405419;32;20055;-52
2022/01/19 12:42:50;;;;;;;7.03;1.70;;;;;;;;;;4408285;32;20099;-51
2022/01/19 12:45:29;;;;;;;5.35;1.52;;;;;;;;;;4413696;32;20039;-49
2022/01/19 12:47:59;;;;;;;6.97;1.62;;;;;;;;;;4404736;32;20068;-49
2022/01/19 12:50:48;;;;;;;13.02;2.20;;;;;;;;;;4410777;32;20086;-50
2022/01/19 12:53:24;;;;;;;8.82;1.65;;;;;;;;;;4404489;32;20094;-51
2022/01/19 12:55:54;;;;;;;8.73;1.83;;;;;;;;;;4411110;32;20067;-51
2022/01/19 12:58:43;;;;;;;7.25;1.67;;;;;;;;;;4411163;32;20172;-51
2022/01/19 13:01:11;;;;;;;10.30;1.73;;;;;;;;;;4409332;32;20066;-50
2022/01/19 13:03:41;;;;;;;10.55;1.75;;;;;;;;;;4407430;32;20055;-50
2022/01/19 13:06:13;;;;;;;9.35;1.60;;;;;;;;;;4409905;32;20077;-52
2022/01/19 13:08:58;;;;;;;10.30;1.83;;;;;;;;;;4408816;32;20069;-52
2022/01/19 13:11:36;;;;;;;8.85;1.80;;;;;;;;;;4400929;32;20078;-50
2022/01/19 13:14:08;;;;;;;9.55;1.73;;;;;;;;;;4406640;32;20097;-53
2022/01/19 13:16:42;;;;;;;8.00;2.03;;;;;;;;;;4407056;32;20057;-52
2022/01/19 13:19:12;;;;;;;10.20;2.33;;;;;;;;;;4409162;32;20058;-53
2022/01/19 13:21:42;;;;;;;11.75;2.20;;;;;;;;;;4414929;32;20049;-54
2022/01/19 13:24:18;;;;;;;9.93;1.73;;;;;;;;;;4423868;32;20044;-50
2022/01/19 13:26:49;;;;;;;10.95;1.87;;;;;;;;;;4411406;32;20042;-53
2022/01/19 13:29:21;;;;;;;12.75;2.03;;;;;;;;;;4413274;32;20076;-51
2022/01/19 13:31:56;;;;;;;14.60;1.73;;;;;;;;;;4411953;32;20042;-48
2022/01/19 13:34:24;;;;;;;9.43;1.77;;;;;;;;;;4405946;32;20039;-51
2022/01/19 13:36:54;;;;;;;12.02;2.00;;;;;;;;;;4414375;32;20054;-49
2022/01/19 13:39:24;;;;;;;9.13;1.70;;;;;;;;;;4412757;32;20111;-49
2022/01/19 13:41:53;;;;;;;12.00;1.77;;;;;;;;;;4413562;32;20072;-49
2022/01/19 13:44:23;;;;;;;15.18;2.28;;;;;;;;;;4411041;32;20080;-49
2022/01/19 13:47:02;;;;;;;9.38;2.05;;;;;;;;;;4409607;32;20083;-52
2022/01/19 13:49:31;;;;;;;14.85;2.08;;;;;;;;;;4411836;32;20053;-49
2022/01/19 13:51:59;;;;;;;9.95;1.75;;;;;;;;;;4414849;32;20056;-49
2022/01/19 13:54:28;;;;;;;10.00;2.00;;;;;;;;;;4413181;32;20053;-52
2022/01/19 13:57:00;;;;;;;7.35;1.80;;;;;;;;;;4404686;32;20034;-50
2022/01/19 13:59:28;;;;;;;10.60;1.90;;;;;;;;;;4410002;32;20120;-52
2022/01/19 14:02:01;;;;;;;10.05;1.90;;;;;;;;;;4406504;32;20039;-52
2022/01/19 14:04:31;;;;;;;9.82;2.53;;;;;;;;;;4408814;32;20408;-49
2022/01/19 14:07:13;;;;;;;16.98;2.20;;;;;;;;;;4405026;32;20039;-50
2022/01/19 14:09:42;;;;;;;13.35;2.20;;;;;;;;;;4409937;32;20583;-51
2022/01/19 14:12:13;;;;;;;15.02;2.25;;;;;;;;;;4408402;32;20493;-52
2022/01/19 14:15:03;;;;;;;7.95;1.58;;;;;;;;;;4406060;32;20102;-51
2022/01/19 14:17:38;;;;;;;6.80;1.77;;;;;;;;;;4403796;32;20031;-52
2022/01/19 14:20:15;;;;;;;10.38;1.75;;;;;;;;;;4407866;32;21615;-53
2022/01/19 14:22:49;;;;;;;9.48;1.92;;;;;;;;;;4420220;32;20034;-49
2022/01/19 14:25:18;;;;;;;10.55;1.95;;;;;;;;;;4411109;32;20087;-49
2022/01/19 14:27:52;;;;;;;12.73;2.07;;;;;;;;;;4416789;32;20045;-49
2022/01/19 14:30:28;;;;;;;15.05;2.10;;;;;;;;;;4405800;32;20130;-53
2022/01/19 14:33:04;;;;;;;14.45;2.05;;;;;;;;;;4411792;32;20061;-49
2022/01/19 14:35:35;;;;;;;12.20;1.77;;;;;;;;;;4416837;32;20146;-49
2022/01/19 14:38:19;;;;;;;12.73;2.00;;;;;;;;;;4408558;32;20042;-51
2022/01/19 14:40:51;;;;;;;13.93;2.05;;;;;;;;;;4408708;32;20030;-51
2022/01/19 14:43:21;;;;;;;11.48;2.00;;;;;;;;;;4409540;32;20064;-49
2022/01/19 14:45:54;;;;;;;11.80;2.00;;;;;;;;;;4412237;32;20119;-49
2022/01/19 14:48:26;;;;;;;8.80;1.77;;;;;;;;;;4416516;32;20311;-51
2022/01/19 14:50:55;;;;;;;12.55;1.92;;;;;;;;;;4403005;32;20046;-50
2022/01/19 14:53:24;;;;;;;12.52;1.98;;;;;;;;;;4409009;32;20051;-50
2022/01/19 14:55:52;;;;;;;12.65;2.47;;;;;;;;;;4406508;32;20113;-51
2022/01/19 14:58:36;;;;;;;12.20;1.87;;;;;;;;;;4404348;32;20034;-49
2022/01/19 15:01:04;;;;;;;13.75;2.42;;;;;;;;;;4403738;32;20038;-52
2022/01/19 15:03:33;;;;;;;11.73;1.90;;;;;;;;;;4413642;32;20417;-49
2022/01/19 15:06:01;;;;;;;9.18;2.05;;;;;;;;;;4409973;32;20494;-51
2022/01/19 15:08:30;;;;;;;11.82;2.03;;;;;;;;;;4405905;32;20054;-48
2022/01/19 15:10:58;;;;;;;10.85;1.85;;;;;;;;;;4417117;32;20046;-52
2022/01/19 15:13:27;;;;;;;10.07;2.33;;;;;;;;;;4416774;32;20104;-50
2022/01/19 15:15:55;;;;;;;9.15;1.60;;;;;;;;;;4409963;32;20045;-48
2022/01/19 15:18:24;;;;;;;15.00;2.25;;;;;;;;;;4404833;32;20073;-49
2022/01/19 15:20:52;;;;;;;12.35;1.92;;;;;;;;;;4405081;32;20128;-49
2022/01/19 15:23:21;;;;;;;14.45;2.45;;;;;;;;;;4406023;32;20085;-50
2022/01/19 15:25:49;;;;;;;9.52;2.00;;;;;;;;;;4408699;32;20098;-53
2022/01/19 15:28:18;;;;;;;13.20;2.17;;;;;;;;;;4410346;32;20023;-50
2022/01/19 15:30:48;;;;;;;13.30;2.15;;;;;;;;;;4406970;32;20019;-52
2022/01/19 15:33:17;;;;;;;10.73;2.03;;;;;;;;;;4408428;32;20125;-52
2022/01/19 15:35:49;;;;;;;14.65;2.28;;;;;;;;;;4410669;32;20358;-53
2022/01/19 15:38:18;;;;;;;9.43;2.15;;;;;;;;;;4413705;32;20077;-52
2022/01/19 15:40:47;;;;;;;14.40;2.37;;;;;;;;;;4414909;32;20357;-52
2022/01/19 15:43:18;;;;;;;8.10;1.83;;;;;;;;;;4415464;32;20031;-52
2022/01/19 15:45:49;;;;;;;12.43;2.30;;;;;;;;;;4414730;32;20050;-49
2022/01/19 15:48:18;;;;;;;12.82;1.90;;;;;;;;;;4407123;32;20066;-49
2022/01/19 15:50:50;;;;;;;9.40;2.03;;;;;;;;;;4411909;32;20053;-53
2022/01/19 15:53:20;;;;;;;10.93;1.83;;;;;;;;;;4419135;32;20046;-49
2022/01/19 15:55:49;;;;;;;9.48;2.15;;;;;;;;;;4424359;32;20042;-50
2022/01/19 15:58:18;;;;;;;12.75;2.28;;;;;;;;;;4403521;32;20106;-50
2022/01/19 16:00:48;;;;;;;8.75;1.90;;;;;;;;;;4407489;32;20417;-50
2022/01/19 16:03:17;;;;;;;11.38;1.87;;;;;;;;;;4404354;32;20476;-51
2022/01/19 16:05:46;;;;;;;11.75;2.42;;;;;;;;;;4410468;32;20027;-52
2022/01/19 16:08:21;;;;;;;10.27;1.98;;;;;;;;;;4411365;32;20084;-49
2022/01/19 16:10:50;;;;;;;8.10;1.60;;;;;;;;;;4415531;32;20085;-51
2022/01/19 16:13:18;;;;;;;14.70;2.05;;;;;;;;;;4417384;32;20057;-50
2022/01/19 16:15:47;;;;;;;9.50;2.37;;;;;;;;;;4412306;32;20031;-49
2022/01/19 16:18:17;;;;;;;10.10;1.90;;;;;;;;;;4417100;32;20050;-49
2022/01/19 16:20:46;;;;;;;10.05;1.90;;;;;;;;;;4414457;32;20071;-53
2022/01/19 16:26:10;;;;;;;9.07;2.10;;;;;;;;;;4412136;32;20074;-50
2022/01/19 16:28:42;;;;;;;16.05;2.20;;;;;;;;;;4409072;32;20031;-50
2022/01/19 16:31:14;;;;;;;9.98;1.90;;;;;;;;;;4417893;32;20035;-53
2022/01/19 16:33:46;;;;;;;13.65;2.15;;;;;;;;;;4414250;32;20047;-52
2022/01/19 16:36:15;;;;;;;10.07;1.95;;;;;;;;;;4403887;32;20043;-51
2022/01/19 16:38:44;;;;;;;11.40;2.28;;;;;;;;;;4411271;32;20078;-49